Bethany, Kentucky
Current Conditions -  °F | °C
As of 8:53 AM on Sunday 23 Nov 2014 (Local Time) from KJKL Reporting Station
Clear Clear  
Wind Chill: 10°   Ceiling: Unl
Heat Index: 10°   Visibility: 10mi
Dew Point:   Wind: 5mph
Humidity: 54%   Direction: 90°E
Pressure: 30.01"   Gusts: NA
Location:  37.65°N, 83.47°W
Report Text: KJKL 231353Z AUTO 09004KT 10SM CLR 10/01 A3001 RMK AO2 SLP161 T01000011
Loading
Personal Weather Stations






























Interactive Weather Map New forecast layout! Learn more

10-Day Weather Forecast

Advertisements
Track Severe Weather on mobile